createdAt,value
2024-03-15T00:00:25.686Z,5.65
2024-03-15T00:02:53.575Z,5.65
2024-03-15T00:05:22.094Z,5.65
2024-03-15T00:07:49.547Z,5.64
2024-03-15T00:10:16.898Z,5.63
2024-03-15T00:12:44.762Z,5.63
2024-03-15T00:15:12.690Z,5.63
2024-03-15T00:17:40.216Z,5.59
2024-03-15T00:20:09.430Z,5.59
2024-03-15T00:22:37.769Z,5.58
2024-03-15T00:25:05.359Z,5.56
2024-03-15T00:27:33.075Z,5.55
2024-03-15T00:30:00.533Z,5.55
2024-03-15T00:32:28.890Z,5.56
2024-03-15T00:34:56.531Z,5.55
2024-03-15T00:37:23.932Z,5.53
2024-03-15T00:39:51.461Z,5.54
2024-03-15T00:42:19.444Z,5.52
2024-03-15T00:44:46.885Z,5.53
2024-03-15T00:47:14.299Z,5.53
2024-03-15T00:49:41.728Z,5.50
2024-03-15T00:52:09.057Z,5.50
2024-03-15T00:54:36.892Z,5.49
2024-03-15T00:57:06.540Z,5.47
2024-03-15T00:59:34.061Z,5.44
2024-03-15T01:02:01.848Z,5.42
2024-03-15T01:04:30.124Z,5.40
2024-03-15T01:06:57.934Z,5.40
2024-03-15T01:09:25.704Z,5.38
2024-03-15T01:11:53.292Z,5.36
2024-03-15T01:14:21.632Z,5.38
2024-03-15T01:16:48.996Z,5.37
2024-03-15T01:19:17.171Z,5.46
2024-03-15T01:21:45.019Z,5.46
2024-03-15T01:24:14.203Z,5.41
2024-03-15T01:26:42.418Z,5.54
2024-03-15T01:29:09.869Z,5.48
2024-03-15T01:31:37.443Z,5.42
2024-03-15T01:34:05.017Z,5.39
2024-03-15T01:36:32.378Z,5.41
2024-03-15T01:39:00.025Z,5.42
2024-03-15T01:41:27.775Z,5.41
2024-03-15T01:43:56.050Z,5.39
2024-03-15T01:46:24.536Z,5.42
2024-03-15T01:48:53.886Z,5.41
2024-03-15T01:51:21.533Z,5.41
2024-03-15T01:53:49.206Z,5.40
2024-03-15T01:56:16.644Z,5.41
2024-03-15T01:58:44.385Z,5.38
2024-03-15T02:01:12.956Z,5.37
2024-03-15T02:03:41.124Z,5.35
2024-03-15T02:06:10.268Z,5.38
2024-03-15T02:08:37.955Z,5.36
2024-03-15T02:11:05.302Z,5.38
2024-03-15T02:13:32.731Z,5.38
2024-03-15T02:16:01.279Z,5.55
2024-03-15T02:18:29.010Z,5.57
2024-03-15T02:20:56.745Z,5.56
2024-03-15T02:23:26.011Z,5.57
2024-03-15T02:25:54.794Z,5.56
2024-03-15T02:28:23.828Z,5.55
2024-03-15T02:30:51.436Z,5.53
2024-03-15T02:33:19.377Z,5.53
2024-03-15T02:35:47.733Z,5.57
2024-03-15T02:38:15.364Z,5.56
2024-03-15T02:40:43.195Z,5.54
2024-03-15T02:43:10.434Z,5.53
2024-03-15T02:45:37.862Z,5.34
2024-03-15T02:48:05.798Z,5.33
2024-03-15T02:50:33.450Z,5.45
2024-03-15T02:53:01.368Z,5.37
2024-03-15T02:55:28.955Z,5.44
2024-03-15T02:57:57.035Z,5.45
2024-03-15T03:00:24.470Z,5.44
2024-03-15T03:02:54.865Z,5.47
2024-03-15T03:05:22.724Z,5.47
2024-03-15T03:07:50.910Z,5.49
2024-03-15T03:10:18.279Z,5.50
2024-03-15T03:12:45.688Z,5.51
2024-03-15T03:15:15.700Z,5.52
2024-03-15T03:17:46.985Z,5.55
2024-03-15T03:20:20.642Z,5.56
2024-03-15T03:22:49.885Z,5.57
2024-03-15T03:25:17.530Z,5.56
2024-03-15T03:27:44.910Z,5.56
2024-03-15T03:30:12.453Z,5.54
2024-03-15T03:32:41.435Z,5.55
2024-03-15T03:35:08.852Z,5.56
2024-03-15T03:37:36.279Z,5.56
2024-03-15T03:40:08.310Z,5.56
2024-03-15T03:42:37.414Z,5.55
2024-03-15T03:45:17.514Z,5.55
2024-03-15T03:47:46.458Z,5.54
2024-03-15T03:50:13.902Z,5.53
2024-03-15T03:52:41.773Z,5.52
2024-03-15T03:55:09.589Z,5.51
2024-03-15T03:57:45.342Z,5.50
2024-03-15T04:00:18.068Z,5.48
2024-03-15T04:02:49.799Z,5.47
2024-03-15T04:05:19.540Z,5.47
2024-03-15T04:07:47.571Z,5.46
2024-03-15T04:10:15.248Z,5.44
2024-03-15T04:12:46.986Z,5.40
2024-03-15T04:15:25.421Z,5.38
2024-03-15T04:17:59.601Z,5.35
2024-03-15T04:20:28.322Z,5.34
2024-03-15T04:22:57.426Z,5.32
2024-03-15T04:25:27.663Z,5.29
2024-03-15T04:27:55.570Z,5.27
2024-03-15T04:30:26.195Z,5.27
2024-03-15T04:32:57.395Z,5.27
2024-03-15T04:35:25.274Z,5.24
2024-03-15T04:37:54.380Z,5.22
2024-03-15T04:40:21.840Z,5.22
2024-03-15T04:42:49.233Z,5.24
2024-03-15T04:45:18.991Z,5.25
2024-03-15T04:47:46.517Z,5.21
2024-03-15T04:50:16.938Z,5.19
2024-03-15T04:52:44.524Z,5.18
2024-03-15T04:55:12.684Z,5.19
2024-03-15T04:57:40.888Z,5.20
2024-03-15T05:00:14.770Z,5.19
2024-03-15T05:02:42.339Z,5.17
2024-03-15T05:05:10.147Z,5.18
2024-03-15T05:07:37.615Z,5.16
2024-03-15T05:10:05.246Z,5.15
2024-03-15T05:12:33.005Z,5.15
2024-03-15T05:15:00.507Z,5.15
2024-03-15T05:17:27.998Z,5.14
2024-03-15T05:19:56.614Z,5.13
2024-03-15T05:22:28.691Z,5.14
2024-03-15T05:24:56.839Z,5.14
2024-03-15T05:27:24.328Z,5.17
2024-03-15T05:29:51.715Z,5.12
2024-03-15T05:32:19.011Z,5.10
2024-03-15T05:34:46.365Z,5.09
2024-03-15T05:37:14.025Z,5.09
2024-03-15T05:39:41.470Z,5.11
2024-03-15T05:42:09.097Z,5.12
2024-03-15T05:44:36.475Z,5.15
2024-03-15T05:47:03.869Z,5.18
2024-03-15T05:49:31.372Z,5.18
2024-03-15T05:51:58.870Z,5.15
2024-03-15T05:54:28.071Z,5.14
2024-03-15T05:56:55.624Z,5.16
2024-03-15T05:59:23.155Z,5.17
2024-03-15T06:01:50.923Z,5.15
2024-03-15T06:04:18.609Z,5.16
2024-03-15T06:06:48.275Z,5.17
2024-03-15T06:09:16.760Z,5.16
2024-03-15T06:11:44.910Z,5.16
2024-03-15T06:14:13.132Z,5.14
2024-03-15T06:16:41.310Z,5.14
2024-03-15T06:19:08.799Z,5.17
2024-03-15T06:21:36.199Z,5.16
2024-03-15T06:24:03.699Z,5.16
2024-03-15T06:26:31.274Z,5.16
2024-03-15T06:28:58.887Z,5.17
2024-03-15T06:31:26.379Z,5.18
2024-03-15T06:33:58.108Z,5.18
2024-03-15T06:36:31.438Z,5.20
2024-03-15T06:39:10.658Z,5.21
2024-03-15T06:41:42.051Z,5.22
2024-03-15T06:44:15.681Z,5.20
2024-03-15T06:46:54.487Z,5.23
2024-03-15T06:49:45.058Z,5.23
2024-03-15T06:52:31.810Z,5.23
2024-03-15T06:55:01.489Z,5.24
2024-03-15T06:57:29.654Z,5.26
2024-03-15T06:59:57.127Z,5.27
2024-03-15T07:02:31.678Z,5.25
2024-03-15T07:04:59.692Z,5.24
2024-03-15T07:07:27.769Z,5.23
2024-03-15T07:09:55.182Z,5.23
2024-03-15T07:12:23.638Z,5.26
2024-03-15T07:14:54.530Z,5.28
2024-03-15T07:17:24.080Z,5.32
2024-03-15T07:19:51.533Z,5.35
2024-03-15T07:22:19.571Z,5.38
2024-03-15T07:24:49.874Z,5.41
2024-03-15T07:27:17.474Z,5.44
2024-03-15T07:29:44.945Z,5.45
2024-03-15T07:32:12.253Z,5.47
2024-03-15T07:34:40.904Z,5.48
2024-03-15T07:37:08.367Z,5.44
2024-03-15T07:39:35.882Z,5.41
2024-03-15T07:42:03.439Z,5.42
2024-03-15T07:44:31.399Z,5.44
2024-03-15T07:46:58.758Z,5.48
2024-03-15T07:49:26.359Z,5.51
2024-03-15T07:51:55.220Z,5.51
2024-03-15T07:54:23.388Z,5.52
2024-03-15T07:56:51.052Z,5.52
2024-03-15T07:59:20.448Z,5.56
2024-03-15T08:01:48.349Z,5.59
2024-03-15T08:04:16.160Z,5.61
2024-03-15T08:06:44.176Z,5.63
2024-03-15T08:09:13.111Z,5.66
2024-03-15T08:11:41.400Z,5.71
2024-03-15T08:14:09.708Z,5.73
2024-03-15T08:16:37.210Z,5.76
2024-03-15T08:19:08.817Z,5.76
2024-03-15T08:21:38.228Z,5.78
2024-03-15T08:24:06.636Z,5.76
2024-03-15T08:26:35.889Z,5.74
2024-03-15T08:29:03.243Z,5.72
2024-03-15T08:31:33.494Z,5.71
2024-03-15T08:34:04.852Z,5.72
2024-03-15T08:36:38.336Z,5.74
2024-03-15T08:39:06.831Z,5.75
2024-03-15T08:41:34.219Z,5.73
2024-03-15T08:44:01.813Z,5.70
2024-03-15T08:46:33.043Z,5.70
2024-03-15T08:49:00.800Z,5.69
2024-03-15T08:51:28.391Z,5.66
2024-03-15T08:53:56.223Z,5.62
2024-03-15T08:56:25.785Z,5.58
2024-03-15T08:58:53.317Z,5.55
2024-03-15T09:01:22.659Z,5.54
2024-03-15T09:03:50.365Z,5.54
2024-03-15T09:06:18.016Z,5.54
2024-03-15T09:08:52.393Z,5.56
2024-03-15T09:11:20.302Z,5.52
2024-03-15T09:13:49.687Z,5.51
2024-03-15T09:16:18.337Z,5.48
2024-03-15T09:18:45.755Z,5.48
2024-03-15T09:21:14.056Z,5.48
2024-03-15T09:23:41.590Z,5.48
2024-03-15T09:26:09.335Z,5.49
2024-03-15T09:28:41.625Z,5.45
2024-03-15T09:31:24.006Z,5.45
2024-03-15T09:34:01.504Z,5.43
2024-03-15T09:36:30.004Z,5.42
2024-03-15T09:38:58.226Z,5.42
2024-03-15T09:41:26.405Z,5.40
2024-03-15T09:43:54.360Z,5.41
2024-03-15T09:46:26.529Z,5.40
2024-03-15T09:48:56.306Z,5.44
2024-03-15T09:51:24.213Z,5.48
2024-03-15T09:53:52.337Z,5.49
2024-03-15T09:56:20.147Z,5.49
2024-03-15T09:58:51.611Z,5.47
2024-03-15T10:01:19.646Z,5.46
2024-03-15T10:03:50.022Z,5.47
2024-03-15T10:06:17.975Z,5.46
2024-03-15T10:08:45.469Z,5.47
2024-03-15T10:11:13.363Z,5.49
2024-03-15T10:13:41.018Z,5.50
2024-03-15T10:16:09.735Z,5.50
2024-03-15T10:18:40.477Z,5.53
2024-03-15T10:21:08.503Z,5.53
2024-03-15T10:23:35.808Z,5.55
2024-03-15T10:26:04.427Z,5.55
2024-03-15T10:28:33.101Z,5.56
2024-03-15T10:31:00.708Z,5.57
2024-03-15T10:33:28.627Z,5.59
2024-03-15T10:35:56.016Z,5.61
2024-03-15T10:38:24.115Z,5.62
2024-03-15T10:40:51.734Z,5.62
2024-03-15T10:45:50.087Z,5.60
2024-03-15T10:48:21.068Z,5.60
2024-03-15T10:50:48.624Z,5.59
2024-03-15T10:53:17.066Z,5.61
2024-03-15T10:55:44.740Z,5.61
2024-03-15T10:58:12.624Z,5.61
2024-03-15T11:00:40.635Z,5.61
2024-03-15T11:03:13.491Z,5.61
2024-03-15T11:05:41.235Z,5.60
2024-03-15T11:08:18.230Z,5.60
2024-03-15T11:10:55.977Z,5.58
2024-03-15T11:13:26.927Z,5.60
2024-03-15T11:15:54.748Z,5.60
2024-03-15T11:18:22.676Z,5.62
2024-03-15T11:20:51.220Z,5.62
2024-03-15T11:23:22.624Z,5.61
2024-03-15T11:25:56.978Z,5.60
2024-03-15T11:28:31.363Z,5.59
2024-03-15T11:31:01.594Z,5.58
2024-03-15T11:33:30.806Z,5.58
2024-03-15T11:35:59.073Z,5.60
2024-03-15T11:38:27.553Z,5.63
2024-03-15T11:40:57.270Z,5.67
2024-03-15T11:43:24.751Z,5.67
2024-03-15T11:45:52.544Z,5.64
2024-03-15T11:48:25.315Z,5.63
2024-03-15T11:50:53.895Z,5.65
2024-03-15T11:53:21.962Z,5.66
2024-03-15T11:55:53.626Z,5.69
2024-03-15T11:58:21.829Z,5.71
2024-03-15T12:00:53.409Z,5.75
2024-03-15T12:03:22.267Z,5.76
2024-03-15T12:05:50.187Z,5.77
2024-03-15T12:08:21.861Z,5.78
2024-03-15T12:10:50.009Z,5.75
2024-03-15T12:13:30.377Z,5.73
2024-03-15T12:16:00.249Z,5.75
2024-03-15T12:18:28.465Z,5.75
2024-03-15T12:20:56.116Z,5.78
2024-03-15T12:23:24.267Z,5.78
2024-03-15T12:25:52.423Z,5.78
2024-03-15T12:28:21.291Z,5.80
2024-03-15T12:30:50.794Z,5.84
2024-03-15T12:33:18.533Z,5.88
2024-03-15T12:35:46.421Z,5.90
2024-03-15T12:38:19.729Z,5.95
2024-03-15T12:40:47.389Z,5.98
2024-03-15T12:43:14.822Z,6.00
2024-03-15T12:45:43.112Z,6.01
2024-03-15T12:48:11.728Z,6.02
2024-03-15T12:50:39.355Z,6.00
2024-03-15T12:53:08.310Z,5.98
2024-03-15T12:55:35.721Z,5.99
2024-03-15T12:58:03.483Z,5.99
2024-03-15T13:00:31.443Z,6.00
2024-03-15T13:02:59.675Z,6.05
2024-03-15T13:05:27.305Z,6.06
2024-03-15T13:07:54.657Z,6.04
2024-03-15T13:10:22.125Z,6.06
2024-03-15T13:12:51.923Z,6.10
2024-03-15T13:15:20.122Z,6.12
2024-03-15T13:17:50.750Z,6.17
2024-03-15T13:20:18.464Z,6.20
2024-03-15T13:22:46.720Z,6.22
2024-03-15T13:25:27.182Z,6.22
2024-03-15T13:28:03.043Z,6.25
2024-03-15T13:30:30.738Z,6.29
2024-03-15T13:33:01.029Z,6.30
2024-03-15T13:35:29.946Z,6.30
2024-03-15T13:37:57.667Z,6.32
2024-03-15T13:40:25.766Z,6.33
2024-03-15T13:42:53.969Z,6.34
2024-03-15T13:45:23.466Z,6.34
2024-03-15T13:47:56.224Z,6.36
2024-03-15T13:50:24.067Z,6.35
2024-03-15T13:52:53.799Z,6.37
2024-03-15T13:55:23.306Z,6.38
2024-03-15T13:57:51.857Z,6.40
2024-03-15T14:00:42.099Z,6.41
2024-03-15T14:03:11.254Z,6.41
2024-03-15T14:05:41.043Z,6.43
2024-03-15T14:08:21.153Z,6.42
2024-03-15T14:10:49.024Z,6.42
2024-03-15T14:13:19.786Z,6.43
2024-03-15T14:15:50.943Z,6.42
2024-03-15T14:18:19.781Z,6.43
2024-03-15T14:20:48.687Z,6.45
2024-03-15T14:23:16.229Z,6.47
2024-03-15T14:25:46.954Z,6.48
2024-03-15T14:28:14.487Z,6.48
2024-03-15T14:30:42.288Z,6.48
2024-03-15T14:33:11.275Z,6.49
2024-03-15T14:35:40.011Z,6.49
2024-03-15T14:38:10.327Z,6.50
2024-03-15T14:40:39.904Z,6.50
2024-03-15T14:43:09.257Z,6.48
2024-03-15T14:45:38.292Z,6.48
2024-03-15T14:48:14.866Z,6.48
2024-03-15T14:50:44.101Z,6.48
2024-03-15T14:53:14.722Z,6.45
2024-03-15T14:55:44.592Z,6.42
2024-03-15T14:58:15.757Z,6.42
2024-03-15T15:00:45.394Z,6.43
2024-03-15T15:03:13.596Z,6.42
2024-03-15T15:05:41.339Z,6.41
2024-03-15T15:08:11.175Z,6.38
2024-03-15T15:10:39.788Z,6.37
2024-03-15T15:13:08.571Z,6.35
2024-03-15T15:15:36.750Z,6.36
2024-03-15T15:18:05.306Z,6.33
2024-03-15T15:20:33.142Z,6.31
2024-03-15T15:23:06.058Z,6.30
2024-03-15T15:25:34.133Z,6.29
2024-03-15T15:28:01.611Z,6.30
2024-03-15T15:30:29.372Z,6.30
2024-03-15T15:32:56.992Z,6.30
2024-03-15T15:35:25.075Z,6.29
2024-03-15T15:37:52.368Z,6.26
2024-03-15T15:40:26.628Z,6.26
2024-03-15T15:42:58.808Z,6.23
2024-03-15T15:45:33.987Z,6.21
2024-03-15T15:48:06.614Z,6.21
2024-03-15T15:50:35.291Z,6.22
2024-03-15T15:53:02.975Z,6.23
2024-03-15T15:55:32.227Z,6.24
2024-03-15T15:57:59.999Z,6.25
2024-03-15T16:00:27.667Z,6.26
2024-03-15T16:02:55.393Z,6.26
2024-03-15T16:05:23.060Z,6.24
2024-03-15T16:07:51.053Z,6.21
2024-03-15T16:10:19.185Z,6.18
2024-03-15T16:12:46.832Z,6.14
2024-03-15T16:15:14.624Z,6.12
2024-03-15T16:17:42.314Z,6.13
2024-03-15T16:20:10.921Z,6.14
2024-03-15T16:22:38.883Z,6.15
2024-03-15T16:25:07.331Z,6.16
2024-03-15T16:27:37.537Z,6.17
2024-03-15T16:30:05.950Z,6.19
2024-03-15T16:32:34.276Z,6.18
2024-03-15T16:35:08.209Z,6.14
2024-03-15T16:37:36.626Z,6.12
2024-03-15T16:40:08.546Z,6.13
2024-03-15T16:42:38.645Z,6.13
2024-03-15T16:45:07.357Z,6.11
2024-03-15T16:47:35.726Z,6.10
2024-03-15T16:50:05.113Z,6.11
2024-03-15T16:52:33.740Z,6.11
2024-03-15T16:55:01.566Z,6.12
2024-03-15T16:57:29.204Z,6.10
2024-03-15T16:59:56.644Z,6.11
2024-03-15T17:02:24.595Z,6.12
2024-03-15T17:04:52.212Z,6.14
2024-03-15T17:07:19.718Z,6.13
2024-03-15T17:09:47.191Z,6.11
2024-03-15T17:12:15.761Z,6.11
2024-03-15T17:14:43.273Z,6.08
2024-03-15T17:17:12.307Z,6.08
2024-03-15T17:19:40.762Z,6.06
2024-03-15T17:22:08.258Z,6.03
2024-03-15T17:24:36.095Z,6.05
2024-03-15T17:27:03.737Z,6.06
2024-03-15T17:29:31.257Z,6.06
2024-03-15T17:31:58.676Z,6.08
2024-03-15T17:34:26.082Z,6.06
2024-03-15T17:36:53.557Z,6.04
2024-03-15T17:39:21.676Z,6.06
2024-03-15T17:41:49.515Z,6.07
2024-03-15T17:44:18.378Z,6.07
2024-03-15T17:46:45.824Z,6.07
2024-03-15T17:49:13.194Z,6.09
2024-03-15T17:51:43.007Z,6.10
2024-03-15T17:54:10.945Z,6.11
2024-03-15T17:56:38.409Z,6.10
2024-03-15T17:59:05.798Z,6.08
2024-03-15T18:01:34.438Z,6.05
2024-03-15T18:04:02.273Z,6.04
2024-03-15T18:06:30.457Z,6.02
2024-03-15T18:08:57.843Z,6.00
2024-03-15T18:11:25.281Z,6.02
2024-03-15T18:13:53.566Z,6.01
2024-03-15T18:16:20.917Z,6.02
2024-03-15T18:18:50.474Z,6.04
2024-03-15T18:21:19.139Z,6.02
2024-03-15T18:23:46.557Z,6.03
2024-03-15T18:26:14.028Z,6.05
2024-03-15T18:28:41.342Z,6.03
2024-03-15T18:31:10.720Z,6.04
2024-03-15T18:33:38.689Z,6.07
2024-03-15T18:36:06.473Z,6.06
2024-03-15T18:38:33.923Z,6.05
2024-03-15T18:41:01.512Z,6.05
2024-03-15T18:43:29.097Z,6.07
2024-03-15T18:45:56.509Z,6.09
2024-03-15T18:48:24.083Z,6.09
2024-03-15T18:50:51.636Z,6.07
2024-03-15T18:53:19.273Z,6.07
2024-03-15T18:55:50.265Z,6.08
2024-03-15T18:58:17.643Z,6.10
2024-03-15T19:00:47.503Z,6.11
2024-03-15T19:03:15.313Z,6.10
2024-03-15T19:05:42.905Z,6.09
2024-03-15T19:08:10.189Z,6.10
2024-03-15T19:10:40.038Z,6.09
2024-03-15T19:13:09.569Z,6.09
2024-03-15T19:15:37.289Z,6.05
2024-03-15T19:18:05.072Z,6.03
2024-03-15T19:20:32.831Z,6.03
2024-03-15T19:23:02.473Z,6.01
2024-03-15T19:25:30.286Z,6.00
2024-03-15T19:27:58.113Z,6.00
2024-03-15T19:30:26.392Z,6.00
2024-03-15T19:32:53.858Z,5.99
2024-03-15T19:35:21.408Z,6.00
2024-03-15T19:37:48.871Z,6.00
2024-03-15T19:40:16.283Z,6.01
2024-03-15T19:42:44.772Z,6.01
2024-03-15T19:45:13.619Z,6.01
2024-03-15T19:47:41.117Z,6.01
2024-03-15T19:50:08.757Z,6.02
2024-03-15T19:52:36.634Z,6.03
2024-03-15T19:55:04.934Z,6.05
2024-03-15T19:57:32.609Z,6.05
2024-03-15T20:00:00.422Z,6.06
2024-03-15T20:02:29.154Z,6.04
2024-03-15T20:04:58.618Z,6.05
2024-03-15T20:07:26.012Z,6.05
2024-03-15T20:09:53.425Z,6.05
2024-03-15T20:12:21.592Z,6.05
2024-03-15T20:14:50.365Z,6.04
2024-03-15T20:17:17.656Z,6.03
2024-03-15T20:19:45.193Z,6.00
2024-03-15T20:22:18.041Z,6.00
2024-03-15T20:24:48.272Z,6.01
2024-03-15T20:27:17.016Z,6.00
2024-03-15T20:29:44.652Z,6.01
2024-03-15T20:32:11.975Z,6.01
2024-03-15T20:34:39.346Z,6.00
2024-03-15T20:37:07.543Z,6.00
2024-03-15T20:39:37.132Z,5.98
2024-03-15T20:42:04.879Z,5.99
2024-03-15T20:44:32.412Z,5.97
2024-03-15T20:46:59.785Z,5.99
2024-03-15T20:49:27.302Z,6.00
2024-03-15T20:51:54.980Z,6.00
2024-03-15T20:54:22.487Z,5.99
2024-03-15T20:56:49.951Z,5.97
2024-03-15T20:59:17.369Z,5.96
2024-03-15T21:01:57.340Z,5.94
2024-03-15T21:04:25.155Z,5.95
2024-03-15T21:06:52.605Z,5.95
2024-03-15T21:09:21.628Z,5.95
2024-03-15T21:11:49.555Z,5.96
2024-03-15T21:14:16.971Z,5.97
2024-03-15T21:16:44.972Z,5.97
2024-03-15T21:19:12.430Z,5.98
2024-03-15T21:21:41.567Z,5.97
2024-03-15T21:24:11.430Z,5.98
2024-03-15T21:26:38.938Z,5.99
2024-03-15T21:29:07.497Z,5.99
2024-03-15T21:31:35.190Z,5.98
2024-03-15T21:34:04.520Z,5.98
2024-03-15T21:36:32.396Z,5.98
2024-03-15T21:39:02.533Z,5.98
2024-03-15T21:41:31.397Z,5.99
2024-03-15T21:43:58.910Z,6.01
2024-03-15T21:46:36.623Z,6.00
2024-03-15T21:49:06.331Z,6.00
2024-03-15T21:51:33.979Z,5.98
2024-03-15T21:54:01.727Z,5.97
2024-03-15T21:56:29.858Z,5.97
2024-03-15T21:59:00.839Z,5.97
2024-03-15T22:01:31.373Z,5.98
2024-03-15T22:03:59.212Z,5.98
2024-03-15T22:06:26.584Z,5.98
2024-03-15T22:08:53.941Z,5.99
2024-03-15T22:11:21.364Z,5.97
2024-03-15T22:13:49.749Z,5.97
2024-03-15T22:16:19.734Z,5.97
2024-03-15T22:18:47.504Z,5.96
2024-03-15T22:21:14.946Z,5.96
2024-03-15T22:23:42.341Z,5.95
2024-03-15T22:26:09.837Z,5.97
2024-03-15T22:28:38.242Z,5.98
2024-03-15T22:31:05.635Z,5.98
2024-03-15T22:33:33.217Z,5.97
2024-03-15T22:36:00.622Z,5.99
2024-03-15T22:38:27.989Z,5.99
2024-03-15T22:40:56.149Z,5.98
2024-03-15T22:43:23.502Z,5.99
2024-03-15T22:45:50.980Z,5.98
2024-03-15T22:48:18.620Z,5.98
2024-03-15T22:50:46.001Z,5.98
2024-03-15T22:53:13.972Z,5.98
2024-03-15T22:55:46.128Z,5.99
2024-03-15T22:58:13.714Z,5.99
2024-03-15T23:00:44.564Z,6.01
2024-03-15T23:03:15.353Z,6.00
2024-03-15T23:05:44.494Z,6.00
2024-03-15T23:08:13.028Z,5.99
2024-03-15T23:10:42.933Z,5.99
2024-03-15T23:13:12.620Z,5.98
2024-03-15T23:15:40.178Z,5.96
2024-03-15T23:18:07.853Z,5.98
2024-03-15T23:20:35.306Z,5.96
2024-03-15T23:23:02.806Z,5.95
2024-03-15T23:25:30.501Z,5.97
2024-03-15T23:27:58.089Z,5.96
2024-03-15T23:30:25.912Z,5.95
2024-03-15T23:32:53.371Z,5.96
2024-03-15T23:35:20.876Z,5.96
2024-03-15T23:37:48.303Z,5.96
2024-03-15T23:40:16.202Z,5.97
2024-03-15T23:42:43.925Z,5.98
2024-03-15T23:45:12.285Z,6.00
2024-03-15T23:47:39.900Z,5.99
2024-03-15T23:50:08.232Z,6.00
2024-03-15T23:52:36.423Z,6.00
2024-03-15T23:55:08.843Z,6.00
2024-03-15T23:57:39.459Z,6.00
